Eldorado, Brazil
Current Conditions -  °F | °C
As of 3:00 PM on Friday 28 Nov 2014 (Local Time) from SBBI Reporting Station
Broken Clouds Broken Clouds  
Wind Chill: 72°   Ceiling: 2700
Heat Index: 72°   Visibility: 6mi
Dew Point: 59°   Wind: 9mph
Humidity: 64%   Direction: 100°E
Pressure: 30.12"   Gusts: NA
Location:  24.52°S, 48.11°W
Report Text: SBBI 281700Z 10008KT 9999 BKN027 BKN035 22/15 Q1020
Loading
Personal Weather Stations






























Interactive Weather Map New forecast layout! Learn more

10-Day Weather Forecast

Advertisements
Track Severe Weather on mobile